sensor_id;sensor_type;location;lat;lon;timestamp;P1;durP1;ratioP1;P2;durP2;ratioP2
39082;SDS011;24834;44.444;26.098;2023-04-25T00:05:39;39.50;;;35.50;;
39082;SDS011;24834;44.444;26.098;2023-04-25T00:11:45;35.75;;;34.25;;
39082;SDS011;24834;44.444;26.098;2023-04-25T00:17:48;32.25;;;28.75;;
39082;SDS011;24834;44.444;26.098;2023-04-25T00:23:50;37.00;;;36.00;;
39082;SDS011;24834;44.444;26.098;2023-04-25T00:29:55;37.67;;;32.00;;
39082;SDS011;24834;44.444;26.098;2023-04-25T00:35:58;41.75;;;36.75;;
39082;SDS011;24834;44.444;26.098;2023-04-25T00:42:01;33.00;;;30.67;;
39082;SDS011;24834;44.444;26.098;2023-04-25T00:48:05;32.33;;;31.33;;
39082;SDS011;24834;44.444;26.098;2023-04-25T00:54:07;33.67;;;33.67;;
39082;SDS011;24834;44.444;26.098;2023-04-25T01:00:10;29.33;;;29.33;;
39082;SDS011;24834;44.444;26.098;2023-04-25T01:06:14;33.67;;;32.00;;
39082;SDS011;24834;44.444;26.098;2023-04-25T01:12:17;32.67;;;29.67;;
39082;SDS011;24834;44.444;26.098;2023-04-25T01:18:19;34.50;;;33.50;;
39082;SDS011;24834;44.444;26.098;2023-04-25T01:24:22;38.75;;;35.25;;
39082;SDS011;24834;44.444;26.098;2023-04-25T01:30:27;35.25;;;35.25;;
39082;SDS011;24834;44.444;26.098;2023-04-25T01:36:31;39.75;;;35.00;;
39082;SDS011;24834;44.444;26.098;2023-04-25T01:42:34;38.75;;;36.25;;
39082;SDS011;24834;44.444;26.098;2023-04-25T01:48:38;44.50;;;38.00;;
39082;SDS011;24834;44.444;26.098;2023-04-25T01:54:40;46.25;;;40.00;;
39082;SDS011;24834;44.444;26.098;2023-04-25T02:00:49;41.25;;;37.50;;
39082;SDS011;24834;44.444;26.098;2023-04-25T02:06:51;43.25;;;39.75;;
39082;SDS011;24834;44.444;26.098;2023-04-25T02:12:54;38.00;;;34.25;;
39082;SDS011;24834;44.444;26.098;2023-04-25T02:19:22;33.75;;;30.00;;
39082;SDS011;24834;44.444;26.098;2023-04-25T02:25:26;37.75;;;36.00;;
39082;SDS011;24834;44.444;26.098;2023-04-25T02:31:29;34.25;;;30.50;;
39082;SDS011;24834;44.444;26.098;2023-04-25T02:37:34;33.25;;;32.75;;
39082;SDS011;24834;44.444;26.098;2023-04-25T02:43:37;33.00;;;27.50;;
39082;SDS011;24834;44.444;26.098;2023-04-25T02:49:39;34.00;;;29.50;;
39082;SDS011;24834;44.444;26.098;2023-04-25T02:55:43;26.25;;;24.75;;
39082;SDS011;24834;44.444;26.098;2023-04-25T03:01:47;30.00;;;26.50;;
39082;SDS011;24834;44.444;26.098;2023-04-25T03:07:49;31.00;;;28.75;;
39082;SDS011;24834;44.444;26.098;2023-04-25T03:13:55;30.50;;;26.50;;
39082;SDS011;24834;44.444;26.098;2023-04-25T03:19:58;25.50;;;24.50;;
39082;SDS011;24834;44.444;26.098;2023-04-25T03:26:00;28.25;;;24.75;;
39082;SDS011;24834;44.444;26.098;2023-04-25T03:32:03;29.00;;;25.00;;
39082;SDS011;24834;44.444;26.098;2023-04-25T03:38:07;24.50;;;24.00;;
39082;SDS011;24834;44.444;26.098;2023-04-25T03:44:13;20.50;;;20.50;;
39082;SDS011;24834;44.444;26.098;2023-04-25T03:50:17;25.00;;;25.00;;
39082;SDS011;24834;44.444;26.098;2023-04-25T03:56:21;32.75;;;26.75;;
39082;SDS011;24834;44.444;26.098;2023-04-25T04:02:31;28.25;;;26.00;;
39082;SDS011;24834;44.444;26.098;2023-04-25T04:08:35;30.50;;;27.25;;
39082;SDS011;24834;44.444;26.098;2023-04-25T10:16:28;51.67;;;43.00;;
39082;SDS011;24834;44.444;26.098;2023-04-25T10:22:41;58.50;;;47.50;;
39082;SDS011;24834;44.444;26.098;2023-04-25T10:28:56;50.67;;;42.00;;
39082;SDS011;24834;44.444;26.098;2023-04-25T10:41:19;70.33;;;55.33;;
39082;SDS011;24834;44.444;26.098;2023-04-25T10:47:34;48.33;;;38.67;;
39082;SDS011;24834;44.444;26.098;2023-04-25T10:54:08;50.67;;;41.67;;
39082;SDS011;24834;44.444;26.098;2023-04-25T11:00:12;42.33;;;36.67;;
39082;SDS011;24834;44.444;26.098;2023-04-25T11:06:29;33.67;;;31.33;;
39082;SDS011;24834;44.444;26.098;2023-04-25T11:12:52;22.00;;;20.67;;
39082;SDS011;24834;44.444;26.098;2023-04-25T11:18:58;32.67;;;31.00;;
39082;SDS011;24834;44.444;26.098;2023-04-25T11:25:07;47.67;;;39.00;;
39082;SDS011;24834;44.444;26.098;2023-04-25T11:31:12;47.00;;;39.33;;
39082;SDS011;24834;44.444;26.098;2023-04-25T11:37:19;39.33;;;36.00;;
39082;SDS011;24834;44.444;26.098;2023-04-25T11:43:21;23.00;;;23.00;;
39082;SDS011;24834;44.444;26.098;2023-04-25T11:49:29;24.50;;;23.50;;
39082;SDS011;24834;44.444;26.098;2023-04-25T11:55:33;49.00;;;41.33;;
39082;SDS011;24834;44.444;26.098;2023-04-25T12:01:41;23.00;;;19.33;;
39082;SDS011;24834;44.444;26.098;2023-04-25T12:07:49;26.67;;;24.67;;
39082;SDS011;24834;44.444;26.098;2023-04-25T12:13:52;47.67;;;39.00;;
39082;SDS011;24834;44.444;26.098;2023-04-25T12:19:57;28.33;;;24.67;;
39082;SDS011;24834;44.444;26.098;2023-04-25T12:25:59;12.33;;;11.67;;
39082;SDS011;24834;44.444;26.098;2023-04-25T12:32:06;16.67;;;16.67;;
39082;SDS011;24834;44.444;26.098;2023-04-25T12:38:09;21.33;;;17.00;;
39082;SDS011;24834;44.444;26.098;2023-04-25T12:44:13;11.33;;;9.33;;
39082;SDS011;24834;44.444;26.098;2023-04-25T12:50:19;13.33;;;11.00;;
39082;SDS011;24834;44.444;26.098;2023-04-25T12:56:21;9.67;;;9.33;;
39082;SDS011;24834;44.444;26.098;2023-04-25T13:02:29;21.33;;;15.33;;
39082;SDS011;24834;44.444;26.098;2023-04-25T13:08:32;12.67;;;12.67;;
39082;SDS011;24834;44.444;26.098;2023-04-25T13:14:34;15.33;;;14.00;;
39082;SDS011;24834;44.444;26.098;2023-04-25T13:20:39;16.67;;;14.33;;
39082;SDS011;24834;44.444;26.098;2023-04-25T13:26:42;13.67;;;13.00;;
39082;SDS011;24834;44.444;26.098;2023-04-25T13:32:45;14.00;;;14.00;;
39082;SDS011;24834;44.444;26.098;2023-04-25T13:38:47;15.67;;;15.00;;
39082;SDS011;24834;44.444;26.098;2023-04-25T13:44:51;35.33;;;35.00;;
39082;SDS011;24834;44.444;26.098;2023-04-25T13:50:54;24.33;;;21.00;;
39082;SDS011;24834;44.444;26.098;2023-04-25T13:56:57;43.00;;;30.33;;
39082;SDS011;24834;44.444;26.098;2023-04-25T14:03:02;8.67;;;8.67;;
39082;SDS011;24834;44.444;26.098;2023-04-25T14:09:06;9.00;;;9.00;;
39082;SDS011;24834;44.444;26.098;2023-04-25T14:15:11;17.33;;;11.67;;
39082;SDS011;24834;44.444;26.098;2023-04-25T14:21:14;20.00;;;16.00;;
39082;SDS011;24834;44.444;26.098;2023-04-25T14:27:16;13.00;;;13.00;;
39082;SDS011;24834;44.444;26.098;2023-04-25T14:33:21;17.33;;;16.00;;
39082;SDS011;24834;44.444;26.098;2023-04-25T14:39:23;18.00;;;18.00;;
39082;SDS011;24834;44.444;26.098;2023-04-25T14:45:26;15.67;;;15.67;;
39082;SDS011;24834;44.444;26.098;2023-04-25T14:51:28;18.00;;;18.00;;
39082;SDS011;24834;44.444;26.098;2023-04-25T14:57:33;16.33;;;15.67;;
39082;SDS011;24834;44.444;26.098;2023-04-25T15:03:36;17.33;;;16.67;;
39082;SDS011;24834;44.444;26.098;2023-04-25T15:09:38;18.67;;;18.67;;
39082;SDS011;24834;44.444;26.098;2023-04-25T15:15:40;13.00;;;13.00;;
39082;SDS011;24834;44.444;26.098;2023-04-25T15:21:43;15.33;;;15.33;;
39082;SDS011;24834;44.444;26.098;2023-04-25T15:27:46;8.67;;;8.33;;
39082;SDS011;24834;44.444;26.098;2023-04-25T15:33:50;3.33;;;3.33;;
39082;SDS011;24834;44.444;26.098;2023-04-25T15:40:00;4.67;;;4.67;;
39082;SDS011;24834;44.444;26.098;2023-04-25T15:46:08;4.00;;;3.67;;
39082;SDS011;24834;44.444;26.098;2023-04-25T15:52:10;3.00;;;3.00;;
39082;SDS011;24834;44.444;26.098;2023-04-25T15:58:13;4.33;;;3.00;;
39082;SDS011;24834;44.444;26.098;2023-04-25T16:04:15;2.00;;;2.00;;
39082;SDS011;24834;44.444;26.098;2023-04-25T16:10:18;8.33;;;7.33;;
39082;SDS011;24834;44.444;26.098;2023-04-25T16:16:22;3.67;;;3.67;;
39082;SDS011;24834;44.444;26.098;2023-04-25T16:22:24;3.33;;;3.33;;
39082;SDS011;24834;44.444;26.098;2023-04-25T16:28:28;6.00;;;3.00;;
39082;SDS011;24834;44.444;26.098;2023-04-25T16:34:31;16.67;;;13.67;;
39082;SDS011;24834;44.444;26.098;2023-04-25T16:40:33;4.00;;;4.00;;
39082;SDS011;24834;44.444;26.098;2023-04-25T16:46:36;8.00;;;6.00;;
39082;SDS011;24834;44.444;26.098;2023-04-25T16:52:39;2.67;;;2.00;;
39082;SDS011;24834;44.444;26.098;2023-04-25T16:58:44;3.67;;;3.67;;
39082;SDS011;24834;44.444;26.098;2023-04-25T17:04:46;9.00;;;7.67;;
39082;SDS011;24834;44.444;26.098;2023-04-25T17:10:49;6.00;;;4.67;;
39082;SDS011;24834;44.444;26.098;2023-04-25T17:16:51;7.33;;;5.00;;
39082;SDS011;24834;44.444;26.098;2023-04-25T17:22:54;11.33;;;9.33;;
39082;SDS011;24834;44.444;26.098;2023-04-25T17:28:58;11.67;;;10.33;;
39082;SDS011;24834;44.444;26.098;2023-04-25T17:35:01;17.67;;;16.00;;
39082;SDS011;24834;44.444;26.098;2023-04-25T17:41:04;8.00;;;8.00;;
39082;SDS011;24834;44.444;26.098;2023-04-25T17:47:08;9.67;;;8.00;;
39082;SDS011;24834;44.444;26.098;2023-04-25T17:53:11;8.67;;;8.67;;
39082;SDS011;24834;44.444;26.098;2023-04-25T17:59:13;15.67;;;13.33;;
39082;SDS011;24834;44.444;26.098;2023-04-25T18:05:17;9.00;;;9.00;;
39082;SDS011;24834;44.444;26.098;2023-04-25T18:11:21;11.00;;;11.00;;
39082;SDS011;24834;44.444;26.098;2023-04-25T18:17:24;11.00;;;9.33;;
39082;SDS011;24834;44.444;26.098;2023-04-25T18:23:26;13.67;;;13.67;;
39082;SDS011;24834;44.444;26.098;2023-04-25T18:29:30;14.00;;;11.67;;
39082;SDS011;24834;44.444;26.098;2023-04-25T18:35:34;10.33;;;10.00;;
39082;SDS011;24834;44.444;26.098;2023-04-25T18:41:45;9.33;;;9.33;;
39082;SDS011;24834;44.444;26.098;2023-04-25T18:47:59;9.67;;;9.67;;
39082;SDS011;24834;44.444;26.098;2023-04-25T18:54:03;11.67;;;11.00;;
39082;SDS011;24834;44.444;26.098;2023-04-25T19:00:05;15.00;;;12.33;;
39082;SDS011;24834;44.444;26.098;2023-04-25T19:06:09;11.67;;;10.67;;
39082;SDS011;24834;44.444;26.098;2023-04-25T19:12:11;11.67;;;11.67;;
39082;SDS011;24834;44.444;26.098;2023-04-25T19:18:14;13.00;;;12.00;;
